Página principal
METAR-TAF:

METAR-TAF

Aeroportos :

Aeroporto de Budapeste Ferenc Liszt

Budapeste, Hungria

latitude: 47-26N, longitude: 019-16E, altura: 151 m

Observação actual do tempo

O boletim foi feito há 18 minutos, às 11:00 UTC
Vento 5 kt de norte, variando entre oeste e este
Temperatura 30°C
Humidade 46%
Pressão 1019 hPa
Visibilidade 10 km ou mais
sem nuvens abaixo de 1500 metros e sem cumulonimbus

METAR: LHBP 191100Z 01005KT 270V080 CAVOK 30/17 Q1019 NOSIG

Hora: 13:18 (11:18 UTC)

Previsão

O boletim foi feito há 6 horas e 3 minutos, às 05:15 UTC
Previsão válida de 19 às 06 UTC a 20 às 06 UTC
Vento 5 kt de nor-noroeste
Visibilidade 10 km ou mais
sem nuvens abaixo de 1500 metros e sem cumulonimbus
Tornando-se
de 19 às 06 UTC a 19 às 08 UTC
Vento 7 kt de es-nordeste
Tornando-se
de 19 às 18 UTC a 19 às 20 UTC
Vento 3 kt com direcção variável

TAF: LHBP 190515Z 1906/2006 34005KT CAVOK BECMG 1906/1908 07007KT BECMG 1918/1920 VRB03KT

Observações e previsões do tempo de mais de 4000 aeroportos (mensagens METAR e TAF).

As estações disponíveis são os pontos amarelos e vermelhos sobre o mapa.

Mova o rato sobre o mapa para ver o nome da estação.

Depois clique no ponto para visualizar as observações e previsões meteorológicas.

Para alterar o mapa : clique nos botões verdes com uma cruz preta para aumentar o zoom; no botão verde com uma pitada de zoom; ou nas setas verdes para mapas adjacentes.


METAR-TAF: